Time;durP1;ratioP1;P1;durP2;ratioP2;P2;SDS_P1;SDS_P2;PMS_P1;PMS_P2;Temp;Humidity;BMP_temperature;BMP_pressure;BME280_temperature;BME280_humidity;BME280_pressure;Samples;Min_cycle;Max_cycle;Signal;HPM_P1;HPM_P2
2021/10/27 00:04:57;;;;;;;;;;;;;;;;;;;;;
2021/10/27 00:10:21;;;;;;;24.40;15.10;;;;;;;9.77;70.69;100490.66;227693;1198;209329;-68
2021/10/27 00:15:59;;;;;;;25.80;13.90;;;;;;;9.67;70.60;100494.11;227295;1198;140239;-68
2021/10/27 00:21:11;;;;;;;18.70;14.30;;;;;;;9.51;70.50;100486.58;227037;1198;141360;-68
2021/10/27 00:26:28;;;;;;;18.90;12.10;;;;;;;9.37;70.47;100497.48;227644;1198;141342;-68
2021/10/27 00:31:35;;;;;;;20.20;14.70;;;;;;;9.30;70.86;100506.61;226690;1198;141700;-68
2021/10/27 00:36:49;;;;;;;18.80;12.00;;;;;;;9.22;70.65;100506.37;226489;1198;140278;-68
2021/10/27 00:42:31;;;;;;;;;;;;;;;;;;;;;
2021/10/27 00:47:44;;;;;;;16.30;12.50;;;;;;;8.91;70.54;100513.31;227491;1198;141567;-71
2021/10/27 00:52:58;;;;;;;24.80;15.50;;;;;;;8.79;70.58;100511.61;226618;1199;142747;-68
2021/10/27 00:58:06;;;;;;;19.10;11.40;;;;;;;8.69;70.85;100519.48;226613;1198;140668;-68
2021/10/27 01:03:35;;;;;;;18.80;12.80;;;;;;;8.54;70.73;100524.20;227461;1198;164229;-69
2021/10/27 01:08:44;;;;;;;23.90;12.50;;;;;;;8.38;70.86;100520.00;227713;1198;141025;-69
2021/10/27 01:13:57;;;;;;;18.50;12.20;;;;;;;8.31;71.15;100521.97;227738;1198;225203;-68
2021/10/27 01:19:02;;;;;;;18.20;12.70;;;;;;;8.23;71.19;100524.31;228215;1198;140689;-68
2021/10/27 01:24:29;;;;;;;22.90;13.10;;;;;;;8.18;71.45;100526.27;228867;1198;139223;-69
2021/10/27 01:29:34;;;;;;;18.70;12.50;;;;;;;8.11;71.48;100522.08;228489;1198;141819;-70
2021/10/27 01:34:39;;;;;;;21.70;13.60;;;;;;;8.05;71.47;100523.10;227788;1198;140095;-68
2021/10/27 01:39:43;;;;;;;24.90;17.10;;;;;;;8.07;72.30;100526.78;227396;1199;142260;-68
2021/10/27 01:44:48;;;;;;;24.20;15.60;;;;;;;8.06;72.18;100524.21;227936;1199;139600;-67
2021/10/27 01:49:58;;;;;;;20.50;15.30;;;;;;;8.02;72.19;100521.83;227339;1199;207596;-69
2021/10/27 01:55:04;;;;;;;22.40;14.90;;;;;;;8.05;72.60;100519.39;226479;1198;141871;-67
2021/10/27 02:00:09;;;;;;;27.40;17.00;;;;;;;8.01;72.50;100515.61;227460;1200;139962;-67
2021/10/27 02:05:14;;;;;;;26.70;15.60;;;;;;;7.95;72.83;100514.53;226847;1200;139883;-67
2021/10/27 02:10:18;;;;;;;21.60;15.60;;;;;;;7.90;73.07;100512.36;226911;1200;140534;-66
2021/10/27 02:16:04;;;;;;;;;;;;;;;;;;;;;
2021/10/27 02:21:35;;;;;;;;;;;;;;;;;;;;;
2021/10/27 02:27:00;;;;;;;22.30;15.50;;;;;;;7.78;73.39;100516.30;227118;1200;139603;-69
2021/10/27 02:32:07;;;;;;;24.90;15.90;;;;;;;7.72;73.46;100513.17;226420;1200;141094;-68
2021/10/27 02:37:16;;;;;;;24.50;18.80;;;;;;;7.69;73.23;100518.21;226718;1200;141596;-68
2021/10/27 02:42:20;;;;;;;23.10;15.60;;;;;;;7.67;73.59;100519.83;227312;1200;140288;-68
2021/10/27 02:47:26;;;;;;;22.30;15.40;;;;;;;7.63;73.83;100523.21;228096;1199;139974;-67
2021/10/27 02:52:44;;;;;;;;;;;;;;;;;;;;;
2021/10/27 02:58:17;;;;;;;25.70;16.80;;;;;;;7.60;73.72;100525.00;226896;1199;140390;-69
2021/10/27 03:03:31;;;;;;;27.30;17.00;;;;;;;7.58;73.83;100525.72;226580;1200;139707;-68
2021/10/27 03:08:56;;;;;;;23.40;17.80;;;;;;;7.53;73.95;100531.40;226287;1200;141793;-67
2021/10/27 03:14:02;;;;;;;29.60;16.50;;;;;;;7.48;74.18;100527.16;229201;1198;140438;-70
2021/10/27 03:19:10;;;;;;;25.20;18.50;;;;;;;7.45;73.85;100527.95;228683;1200;140077;-68
2021/10/27 03:24:16;;;;;;;19.90;14.40;;;;;;;7.43;74.22;100530.96;228959;1199;140700;-71
2021/10/27 03:29:22;;;;;;;28.50;18.50;;;;;;;7.42;74.43;100535.94;228871;1199;162190;-70
2021/10/27 03:34:38;;;;;;;28.70;17.50;;;;;;;7.41;74.36;100538.75;228875;1199;140310;-69
2021/10/27 03:39:42;;;;;;;26.70;18.70;;;;;;;7.43;74.07;100556.23;228666;1199;140854;-69
2021/10/27 03:44:50;;;;;;;26.60;18.30;;;;;;;7.42;74.07;100554.10;227251;1199;140653;-68
2021/10/27 03:49:55;;;;;;;27.60;17.20;;;;;;;7.27;73.71;100556.98;226604;1199;141611;-68
2021/10/27 03:55:03;;;;;;;22.30;15.90;;;;;;;7.11;74.10;100563.86;227643;1199;141024;-68
2021/10/27 04:00:15;;;;;;;21.30;15.70;;;;;;;7.04;73.93;100558.31;228080;1200;141489;-68
2021/10/27 04:05:23;;;;;;;22.10;16.10;;;;;;;6.97;74.04;100561.48;226353;1200;142114;-66
2021/10/27 04:10:27;;;;;;;21.50;15.60;;;;;;;6.89;74.01;100566.26;226296;1200;140768;-68
2021/10/27 04:15:52;;;;;;;25.20;16.90;;;;;;;6.66;73.85;100574.92;229636;1200;139639;-67
2021/10/27 04:20:58;;;;;;;26.60;17.10;;;;;;;6.52;74.37;100579.46;232145;1199;140959;-70
2021/10/27 04:26:24;;;;;;;26.50;17.80;;;;;;;6.50;74.00;100580.48;230624;1200;139888;-69
2021/10/27 04:31:33;;;;;;;32.10;18.40;;;;;;;6.40;74.32;100583.27;230659;1198;139490;-66
2021/10/27 04:36:48;;;;;;;24.10;16.10;;;;;;;6.37;74.57;100580.18;230485;1199;140095;-69
2021/10/27 04:41:57;;;;;;;26.60;15.90;;;;;;;6.28;74.53;100573.58;229592;1200;139077;-69
2021/10/27 04:47:03;;;;;;;28.20;17.30;;;;;;;6.20;74.66;100573.61;230007;1199;161650;-67
2021/10/27 04:52:27;;;;;;;20.70;15.30;;;;;;;6.11;74.66;100577.38;230411;1201;140877;-69
2021/10/27 04:57:33;;;;;;;26.00;17.00;;;;;;;6.05;75.12;100576.21;230011;1201;144097;-67
2021/10/27 05:02:36;;;;;;;21.90;15.90;;;;;;;6.01;75.21;100563.29;231864;1200;140034;-69
2021/10/27 05:07:43;;;;;;;29.90;18.50;;;;;;;6.06;75.34;100569.38;230906;1200;140613;-67
2021/10/27 05:18:40;;;;;;;30.90;19.60;;;;;;;6.10;75.82;100559.41;231397;1195;139800;-67
2021/10/27 05:24:05;;;;;;;23.40;17.70;;;;;;;6.23;76.56;100561.59;231748;1201;140556;-67
2021/10/27 05:29:31;;;;;;;27.30;18.90;;;;;;;6.40;76.64;100560.30;234184;1180;160620;-67
2021/10/27 05:34:38;;;;;;;28.70;17.80;;;;;;;6.57;76.98;100561.75;231684;1200;139258;-68
2021/10/27 05:40:06;;;;;;;35.20;18.60;;;;;;;6.69;76.83;100567.06;229375;1200;140137;-67
2021/10/27 05:45:15;;;;;;;30.30;16.60;;;;;;;6.85;76.74;100568.14;229954;1200;139607;-66
2021/10/27 05:50:32;;;;;;;23.80;18.00;;;;;;;6.97;76.73;100577.39;229577;1200;139356;-67
2021/10/27 05:56:08;;;;;;;29.30;17.30;;;;;;;7.05;76.62;100583.96;231152;1200;139554;-67
2021/10/27 06:01:34;;;;;;;25.50;18.40;;;;;;;7.08;76.73;100594.52;230612;1200;139832;-67
2021/10/27 06:06:55;;;;;;;;;;;;;;;;;;;;;
2021/10/27 06:12:13;;;;;;;27.60;18.00;;;;;;;7.16;76.79;100602.42;231134;1199;140022;-68
2021/10/27 06:17:41;;;;;;;;;;;;;;;;;;;;;
2021/10/27 06:22:46;;;;;;;24.80;15.30;;;;;;;7.33;76.17;100594.77;227091;1200;141854;-67
2021/10/27 06:28:23;;;;;;;39.10;18.10;;;;;;;7.39;76.36;100601.74;226514;1200;141684;-66
2021/10/27 06:49:42;;;;;;;27.80;15.80;;;;;;;7.76;76.28;100639.35;227060;1200;142052;-68
2021/10/27 06:55:11;;;;;;;25.50;18.90;;;;;;;7.80;76.14;100642.64;226648;1200;142195;-68
2021/10/27 07:18:28;;;;;;;26.40;18.70;;;;;;;8.34;76.11;100653.50;228520;1200;140843;-69
2021/10/27 07:23:47;;;;;;;25.00;16.20;;;;;;;8.61;75.98;100645.77;229045;1200;140233;-71
2021/10/27 07:28:53;;;;;;;27.30;16.90;;;;;;;8.88;76.11;100639.42;229103;1200;139679;-71
2021/10/27 07:34:06;;;;;;;20.40;16.00;;;;;;;9.04;75.85;100640.64;228919;1200;140228;-71
2021/10/27 07:44:36;;;;;;;20.30;14.30;;;;;;;9.60;75.31;100646.59;226629;1200;143913;-72
2021/10/27 07:49:47;;;;;;;22.20;12.90;;;;;;;9.74;75.06;100647.70;228948;1200;140397;-69
2021/10/27 07:55:39;;;;;;;18.80;13.10;;;;;;;9.83;74.81;100643.11;226580;1200;141511;-68
2021/10/27 08:00:47;;;;;;;16.50;11.90;;;;;;;10.05;74.79;100638.58;227068;1200;140392;-67
2021/10/27 08:06:04;;;;;;;;;;;;;;;;;;;;;
2021/10/27 08:11:17;;;;;;;23.40;14.10;;;;;;;10.29;74.41;100646.85;226466;1200;141835;-68
2021/10/27 08:16:38;;;;;;;17.30;12.90;;;;;;;10.43;74.28;100647.27;226684;1200;140988;-71
2021/10/27 08:21:44;;;;;;;15.20;11.50;;;;;;;10.52;74.23;100641.98;225936;1200;141322;-70
2021/10/27 08:27:12;;;;;;;19.70;11.50;;;;;;;10.62;74.02;100648.30;226003;1201;141313;-67
2021/10/27 08:32:40;;;;;;;;;;;;;;;;;;;;;
2021/10/27 08:38:00;;;;;;;;;;;;;;;;;;;;;
2021/10/27 08:43:06;;;;;;;15.60;10.70;;;;;;;11.11;73.57;100644.93;227565;1200;139677;-69
2021/10/27 08:48:12;;;;;;;16.80;11.20;;;;;;;11.32;73.14;100644.08;225876;1200;139708;-69
2021/10/27 08:53:23;;;;;;;17.00;10.00;;;;;;;11.54;72.84;100644.69;227173;1200;140352;-69
2021/10/27 08:58:33;;;;;;;12.50;10.30;;;;;;;11.72;72.68;100645.05;227213;1200;141480;-70
2021/10/27 09:42:56;;;;;;;13.40;10.60;;;;;;;12.86;69.83;100650.04;226518;1200;140594;-70
2021/10/27 10:05:27;;;;;;;15.90;10.10;;;;;;;13.46;69.15;100656.31;227775;1200;140403;-70
2021/10/27 10:10:59;;;;;;;14.40;10.20;;;;;;;13.68;69.08;100654.97;227006;1200;140970;-70
2021/10/27 10:16:38;;;;;;;10.60;7.20;;;;;;;13.97;68.61;100655.19;227267;1200;140133;-70
2021/10/27 10:22:32;;;;;;;11.50;7.60;;;;;;;14.16;68.14;100658.29;227027;1200;139286;-70
2021/10/27 10:27:58;;;;;;;9.80;8.30;;;;;;;14.21;67.58;100662.48;226109;1200;140467;-70
2021/10/27 10:33:49;;;;;;;15.40;7.30;;;;;;;14.26;67.28;100660.66;226058;1200;141913;-71
2021/10/27 11:41:15;;;;;;;8.80;7.70;;;;;;;14.66;65.08;100634.61;227818;1200;140079;-70
2021/10/27 11:46:55;;;;;;;;;;;;;;;;;;;;;
2021/10/27 11:52:22;;;;;;;14.50;7.10;;;;;;;14.86;64.56;100626.91;226082;1193;140020;-70
2021/10/27 11:57:31;;;;;;;12.00;6.50;;;;;;;14.89;64.29;100624.73;227916;1200;140760;-69
2021/10/27 12:03:36;;;;;;;10.80;6.30;;;;;;;14.99;64.28;100622.09;226786;1200;140011;-69
2021/10/27 12:15:57;;;;;;;;;;;;;;;;;;;;;
2021/10/27 12:21:10;;;;;;;6.30;5.60;;;;;;;15.16;63.28;100609.30;227357;1200;139924;-70
2021/10/27 12:27:12;;;;;;;11.90;5.50;;;;;;;15.04;63.05;100595.40;226616;1200;139727;-70
2021/10/27 12:32:25;;;;;;;13.60;6.80;;;;;;;14.98;62.76;100589.56;226563;1200;140656;-70
2021/10/27 12:43:15;;;;;;;8.20;5.00;;;;;;;15.33;62.95;100588.92;226555;1200;140488;-70
2021/10/27 12:49:20;;;;;;;6.10;5.30;;;;;;;15.44;62.68;100579.21;226704;1200;139001;-70
2021/10/27 12:54:40;;;;;;;6.20;4.10;;;;;;;15.37;62.36;100583.73;226448;1200;139893;-70
2021/10/27 13:00:15;;;;;;;9.80;4.90;;;;;;;15.35;62.13;100586.00;226397;1200;140631;-70
2021/10/27 13:17:04;;;;;;;4.60;3.50;;;;;;;15.23;61.67;100592.56;226858;1200;139228;-70
2021/10/27 13:23:15;;;;;;;7.90;3.60;;;;;;;15.09;61.19;100593.00;228527;1200;139181;-71
2021/10/27 13:33:26;;;;;;;4.90;3.80;;;;;;;15.00;61.62;100593.65;228138;1200;140917;-71
2021/10/27 13:38:36;;;;;;;8.60;4.80;;;;;;;14.95;61.77;100596.21;229180;1200;141449;-71
2021/10/27 14:19:10;;;;;;;7.50;4.10;;;;;;;14.40;61.27;100608.95;226796;1200;141121;-70
2021/10/27 15:35:34;;;;;;;10.10;6.30;;;;;;;13.26;63.54;100574.05;229057;1200;141812;-70
2021/10/27 15:52:07;;;;;;;8.90;6.00;;;;;;;13.22;63.82;100577.27;228521;1200;139729;-70
2021/10/27 15:57:13;;;;;;;9.50;5.60;;;;;;;13.17;63.76;100569.66;229029;1200;140290;-71
2021/10/27 16:02:42;;;;;;;12.90;6.30;;;;;;;13.10;63.83;100573.30;227199;1200;139889;-70
2021/10/27 16:07:51;;;;;;;10.40;6.10;;;;;;;13.06;64.03;100578.71;226555;1200;139410;-69
2021/10/27 16:13:23;;;;;;;15.30;7.40;;;;;;;13.01;63.95;100582.01;227470;1200;140009;-68
2021/10/27 16:18:32;;;;;;;14.90;8.90;;;;;;;12.98;64.07;100585.83;226900;1200;151553;-68
2021/10/27 16:23:53;;;;;;;;;;;;;;;;;;;;;
2021/10/27 16:29:38;;;;;;;12.20;9.20;;;;;;;12.87;64.26;100583.08;226207;1200;140366;-69
2021/10/27 16:34:52;;;;;;;15.00;9.50;;;;;;;12.80;64.64;100581.95;226505;1200;140255;-70
2021/10/27 16:40:35;;;;;;;17.40;8.10;;;;;;;12.74;64.64;100584.42;226169;1200;142023;-69
2021/10/27 16:46:01;;;;;;;;;;;;;;;;;;;;;
2021/10/27 16:51:20;;;;;;;;;;;;;;;;;;;;;
2021/10/27 16:56:34;;;;;;;9.10;6.60;;;;;;;12.41;64.81;100607.44;227635;1200;139271;-70
2021/10/27 17:02:33;;;;;;;12.10;7.50;;;;;;;12.36;64.79;100604.62;226115;1201;141826;-70
2021/10/27 17:07:56;;;;;;;;;;;;;;;;;;;;;
2021/10/27 17:13:06;;;;;;;11.90;7.90;;;;;;;12.15;65.10;100605.01;226578;1200;139292;-70
2021/10/27 17:18:16;;;;;;;13.50;7.80;;;;;;;12.07;65.12;100613.80;228300;1200;141335;-71
2021/10/27 17:23:59;;;;;;;12.70;8.50;;;;;;;12.00;65.39;100620.05;227257;1200;139381;-69
2021/10/27 17:28:58;;;;;;;15.10;8.40;;;;;;;11.95;65.46;100633.79;227239;1200;139252;-69
2021/10/27 17:34:26;;;;;;;;;;;;;;;;;;;;;
2021/10/27 17:39:45;;;;;;;12.40;8.50;;;;;;;11.97;65.93;100644.13;228704;1200;140288;-68
2021/10/27 17:44:52;;;;;;;19.80;9.70;;;;;;;12.01;65.94;100649.31;229438;1200;141022;-70
2021/10/27 17:50:18;;;;;;;25.60;9.60;;;;;;;12.02;65.96;100652.88;229281;1200;140925;-69
2021/10/27 18:01:01;;;;;;;13.80;8.00;;;;;;;11.99;65.89;100660.05;227567;1200;140158;-70
2021/10/27 18:06:35;;;;;;;;;;;;;;;;;;;;;
2021/10/27 18:12:04;;;;;;;12.60;8.50;;;;;;;11.94;66.01;100659.79;227073;1201;140661;-68
2021/10/27 18:17:14;;;;;;;;;;;;;;;11.89;66.35;100643.08;227191;1200;139180;-70
2021/10/27 18:22:45;;;;;;;14.50;7.40;;;;;;;11.85;66.63;100647.88;227771;1200;126300;-68
2021/10/27 18:46:07;;;;;;;;;;;;;;;;;;;;;
2021/10/27 18:51:36;;;;;;;;;;;;;;;;;;;;;
2021/10/27 18:57:44;;;;;;;;;;;;;;;;;;;;;
2021/10/27 19:15:28;;;;;;;12.80;7.60;;;;;;;11.92;66.87;100674.56;226600;1200;140353;-69
2021/10/27 19:20:29;;;;;;;7.90;6.60;;;;;;;11.86;67.11;100670.52;227103;1200;141248;-69
2021/10/27 19:26:16;;;;;;;8.70;6.00;;;;;;;11.80;66.90;100669.42;226276;1200;140415;-69
2021/10/27 20:28:41;;;;;;;16.10;8.40;;;;;;;11.94;68.09;100664.46;226823;1200;140751;-73
2021/10/27 20:56:52;;;;;;;16.00;9.00;;;;;;;11.84;68.53;100670.13;226261;1200;141819;-69
2021/10/27 21:13:27;;;;;;;13.20;7.70;;;;;;;11.92;68.97;100686.20;226360;1200;140229;-70
2021/10/27 21:18:54;;;;;;;14.00;8.70;;;;;;;11.92;69.26;100683.73;227675;1200;140096;-71
2021/10/27 21:24:12;;;;;;;12.30;7.60;;;;;;;11.93;69.20;100682.58;227035;1200;140975;-70
2021/10/27 21:30:18;;;;;;;15.10;10.50;;;;;;;11.97;69.16;100690.45;226415;1200;141202;-69
2021/10/27 21:46:28;;;;;;;13.90;8.20;;;;;;;12.04;69.51;100702.15;226198;1200;140154;-70
2021/10/27 21:51:53;;;;;;;;;;;;;;;;;;;;;
2021/10/27 21:57:07;;;;;;;13.20;8.50;;;;;;;12.07;69.36;100704.35;228664;1200;140765;-70
2021/10/27 22:02:15;;;;;;;11.00;8.00;;;;;;;12.09;69.40;100708.31;228925;1200;140016;-68
2021/10/27 22:07:50;;;;;;;12.70;7.80;;;;;;;12.11;69.55;100708.09;227751;1200;139883;-69
2021/10/27 22:13:02;;;;;;;15.40;8.60;;;;;;;12.13;69.36;100709.13;226360;1200;140140;-70
2021/10/27 22:18:07;;;;;;;13.00;8.10;;;;;;;12.17;69.54;100709.23;228162;1200;141165;-69
2021/10/27 22:23:18;;;;;;;10.80;7.60;;;;;;;12.23;69.63;100710.75;226980;1201;140822;-69
2021/10/27 22:28:45;;;;;;;;;;;;;;;;;;;;;
2021/10/27 22:34:03;;;;;;;12.00;8.40;;;;;;;12.20;69.79;100699.02;227358;1200;142652;-70
2021/10/27 22:39:15;;;;;;;9.00;6.80;;;;;;;12.18;69.69;100700.34;226289;1200;141465;-70
2021/10/27 22:44:53;;;;;;;10.60;7.80;;;;;;;12.20;69.91;100700.40;226093;1202;209717;-69
2021/10/27 22:49:58;;;;;;;11.80;7.20;;;;;;;12.19;70.00;100700.38;226395;1193;140477;-70
2021/10/27 22:55:12;;;;;;;10.20;8.00;;;;;;;12.12;69.91;100702.36;226650;1200;139515;-71
2021/10/27 23:00:22;;;;;;;7.30;6.60;;;;;;;12.10;70.07;100697.37;226363;1200;140709;-70
2021/10/27 23:11:51;;;;;;;11.20;8.80;;;;;;;12.14;70.13;100699.84;226517;1200;140096;-68
2021/10/27 23:44:06;;;;;;;12.00;7.00;;;;;;;12.12;70.34;100700.30;226286;1202;140775;-69
2021/10/27 23:49:24;;;;;;;;;;;;;;;12.11;70.45;100701.48;226327;1200;141499;-69
